createdAt,value
2018-05-13T00:00:42.395Z,13.23
2018-05-13T00:03:10.396Z,14.27
2018-05-13T00:05:38.309Z,13.60
2018-05-13T00:08:06.239Z,14.50
2018-05-13T00:10:34.284Z,15.90
2018-05-13T00:13:02.214Z,13.17
2018-05-13T00:15:30.996Z,15.87
2018-05-13T00:17:59.706Z,14.37
2018-05-13T00:20:27.661Z,14.47
2018-05-13T00:22:56.332Z,14.23
2018-05-13T00:25:24.303Z,15.63
2018-05-13T00:27:52.371Z,19.30
2018-05-13T00:30:20.337Z,14.23
2018-05-13T00:32:48.240Z,15.43
2018-05-13T00:35:16.959Z,14.53
2018-05-13T00:37:44.866Z,13.57
2018-05-13T00:40:12.817Z,14.17
2018-05-13T00:42:40.718Z,14.13
2018-05-13T00:45:09.450Z,11.73
2018-05-13T00:47:37.355Z,13.23
2018-05-13T00:50:05.368Z,12.50
2018-05-13T00:52:33.292Z,12.80
2018-05-13T00:55:01.256Z,11.10
2018-05-13T00:57:29.159Z,12.20
2018-05-13T00:59:57.872Z,11.00
2018-05-13T01:02:25.774Z,11.03
2018-05-13T01:04:53.756Z,11.70
2018-05-13T01:07:21.661Z,12.77
2018-05-13T01:09:50.386Z,12.80
2018-05-13T01:12:18.289Z,10.90
2018-05-13T01:14:46.230Z,10.33
2018-05-13T01:17:14.143Z,12.63
2018-05-13T01:19:42.901Z,11.60
2018-05-13T01:22:10.824Z,10.93
2018-05-13T01:24:38.782Z,11.70
2018-05-13T01:27:07.482Z,11.50
2018-05-13T01:29:35.449Z,10.90
2018-05-13T01:32:04.146Z,11.10
2018-05-13T01:34:32.113Z,11.13
2018-05-13T01:37:00.033Z,11.80
2018-05-13T01:39:28.001Z,14.60
2018-05-13T01:41:55.921Z,11.63
2018-05-13T01:44:23.884Z,11.70
2018-05-13T01:46:51.801Z,12.13
2018-05-13T01:49:19.766Z,12.27
2018-05-13T01:51:47.716Z,11.70
2018-05-13T01:54:15.693Z,11.53
2018-05-13T01:56:43.602Z,12.07
2018-05-13T01:59:11.568Z,10.80
2018-05-13T02:01:39.501Z,12.77
2018-05-13T02:04:07.488Z,11.70
2018-05-13T02:06:35.434Z,11.30
2018-05-13T02:09:03.548Z,12.90
2018-05-13T02:11:31.465Z,11.37
2018-05-13T02:13:59.447Z,10.90
2018-05-13T02:16:27.372Z,13.90
2018-05-13T02:18:55.285Z,15.20
2018-05-13T02:21:23.264Z,13.90
2018-05-13T02:23:51.172Z,12.03
2018-05-13T02:26:19.154Z,11.07
2018-05-13T02:28:47.052Z,11.13
2018-05-13T02:31:15.022Z,12.70
2018-05-13T02:33:42.930Z,11.43
2018-05-13T02:36:10.909Z,10.93
2018-05-13T02:38:38.843Z,10.80
2018-05-13T02:41:06.807Z,11.73
2018-05-13T02:43:34.771Z,11.93
2018-05-13T02:46:02.745Z,11.53
2018-05-13T02:48:30.647Z,9.97
2018-05-13T02:50:58.598Z,11.00
2018-05-13T02:53:26.507Z,10.90
2018-05-13T02:55:54.516Z,11.00
2018-05-13T02:58:22.427Z,11.60
2018-05-13T03:00:50.383Z,11.60
2018-05-13T03:03:18.320Z,14.43
2018-05-13T03:05:47.040Z,10.80
2018-05-13T03:08:14.945Z,12.57
2018-05-13T03:10:42.913Z,10.17
2018-05-13T03:13:10.829Z,14.33
2018-05-13T03:15:38.807Z,13.07
2018-05-13T03:18:06.738Z,14.37
2018-05-13T03:20:35.485Z,11.07
2018-05-13T03:23:03.383Z,9.90
2018-05-13T03:25:31.353Z,12.50
2018-05-13T03:27:59.274Z,11.90
2018-05-13T03:30:27.228Z,12.80
2018-05-13T03:32:55.139Z,13.90
2018-05-13T03:35:23.092Z,13.87
2018-05-13T03:37:51.004Z,10.77
2018-05-13T03:40:18.984Z,11.30
2018-05-13T03:42:47.666Z,12.53
2018-05-13T03:45:16.402Z,12.63
2018-05-13T03:47:44.320Z,11.10
2018-05-13T03:50:12.368Z,12.33
2018-05-13T03:52:40.318Z,10.00
2018-05-13T03:55:08.326Z,13.73
2018-05-13T03:57:36.234Z,13.17
2018-05-13T04:00:04.280Z,10.32
2018-05-13T04:02:32.195Z,15.97
2018-05-13T04:05:00.184Z,11.10
2018-05-13T04:07:28.169Z,11.65
2018-05-13T04:10:07.848Z,11.30
2018-05-13T04:12:48.550Z,13.37
2018-05-13T04:15:28.414Z,11.97
2018-05-13T04:17:56.317Z,12.33
2018-05-13T04:20:25.059Z,13.00
2018-05-13T04:22:52.969Z,12.43
2018-05-13T04:25:20.927Z,12.50
2018-05-13T04:27:48.854Z,11.00
2018-05-13T04:30:16.816Z,10.97
2018-05-13T04:32:44.729Z,13.60
2018-05-13T04:35:12.690Z,11.83
2018-05-13T04:37:40.601Z,10.97
2018-05-13T04:40:09.325Z,12.37
2018-05-13T04:42:37.252Z,13.97
2018-05-13T04:45:05.227Z,12.77
2018-05-13T04:47:33.126Z,12.30
2018-05-13T04:50:01.109Z,11.47
2018-05-13T04:52:29.010Z,12.50
2018-05-13T04:54:57.052Z,13.80
2018-05-13T04:57:24.954Z,14.83
2018-05-13T04:59:52.861Z,11.87
2018-05-13T05:02:21.586Z,12.63
2018-05-13T05:04:49.495Z,15.30
2018-05-13T05:07:17.467Z,12.57
2018-05-13T05:09:45.421Z,11.67
2018-05-13T05:12:13.390Z,11.23
2018-05-13T05:14:41.289Z,12.13
2018-05-13T05:17:10.029Z,12.70
2018-05-13T05:19:37.932Z,12.57
2018-05-13T05:22:05.905Z,12.13
2018-05-13T05:24:33.807Z,13.93
2018-05-13T05:27:01.765Z,12.60
2018-05-13T05:29:29.662Z,11.00
2018-05-13T05:31:57.608Z,11.27
2018-05-13T05:34:25.513Z,12.17
2018-05-13T05:36:53.476Z,11.03
2018-05-13T05:39:21.379Z,11.60
2018-05-13T05:41:49.335Z,10.70
2018-05-13T05:44:17.258Z,15.03
2018-05-13T05:46:45.217Z,10.37
2018-05-13T05:49:13.897Z,11.20
2018-05-13T05:51:42.639Z,10.97
2018-05-13T05:54:10.555Z,12.47
2018-05-13T05:56:39.284Z,11.07
2018-05-13T05:59:07.198Z,11.17
2018-05-13T06:01:35.179Z,12.63
2018-05-13T06:04:03.883Z,11.40
2018-05-13T06:06:31.842Z,11.90
2018-05-13T06:09:00.530Z,10.80
2018-05-13T06:11:30.509Z,14.27
2018-05-13T06:13:58.512Z,11.60
2018-05-13T06:16:26.485Z,10.97
2018-05-13T06:18:55.159Z,11.00
2018-05-13T06:21:23.110Z,9.80
2018-05-13T06:23:51.032Z,11.70
2018-05-13T06:26:19.002Z,10.87
2018-05-13T06:28:46.930Z,10.83
2018-05-13T06:31:14.874Z,11.80
2018-05-13T06:33:42.839Z,11.53
2018-05-13T06:36:10.799Z,10.67
2018-05-13T06:38:38.709Z,11.07
2018-05-13T06:41:06.684Z,10.67
2018-05-13T06:43:34.592Z,10.87
2018-05-13T06:46:02.571Z,10.70
2018-05-13T06:48:30.466Z,10.20
2018-05-13T06:50:58.440Z,10.37
2018-05-13T06:53:27.143Z,10.37
2018-05-13T06:55:55.118Z,10.63
2018-05-13T06:58:23.033Z,9.77
2018-05-13T07:00:50.995Z,14.97
2018-05-13T07:03:18.915Z,9.70
2018-05-13T07:05:46.879Z,8.77
2018-05-13T07:08:14.799Z,11.27
2018-05-13T07:10:42.764Z,10.50
2018-05-13T07:13:11.439Z,10.13
2018-05-13T07:15:40.165Z,11.90
2018-05-13T07:18:08.063Z,9.70
2018-05-13T07:20:36.033Z,11.40
2018-05-13T07:23:03.948Z,10.53
2018-05-13T07:25:32.658Z,9.73
2018-05-13T07:28:00.572Z,10.43
2018-05-13T07:30:28.482Z,13.00
2018-05-13T07:32:56.453Z,9.27
2018-05-13T07:35:24.347Z,11.07
2018-05-13T07:37:52.294Z,9.60
2018-05-13T07:40:20.195Z,9.93
2018-05-13T07:42:48.205Z,9.73
2018-05-13T07:45:16.114Z,12.40
2018-05-13T07:47:44.089Z,11.77
2018-05-13T07:50:12.011Z,8.20
2018-05-13T07:52:40.742Z,8.30
2018-05-13T07:55:08.670Z,9.07
2018-05-13T07:57:36.621Z,7.47
2018-05-13T08:00:04.519Z,6.90
2018-05-13T08:02:33.257Z,7.50
2018-05-13T08:05:01.190Z,10.10
2018-05-13T08:07:29.926Z,10.57
2018-05-13T08:09:57.842Z,7.20
2018-05-13T08:12:26.559Z,6.90
2018-05-13T08:14:54.503Z,6.90
2018-05-13T08:17:23.253Z,7.13
2018-05-13T08:19:51.153Z,7.77
2018-05-13T08:22:19.890Z,6.47
2018-05-13T08:24:47.836Z,12.40
2018-05-13T08:27:15.834Z,9.80
2018-05-13T08:29:43.756Z,44.67
2018-05-13T08:32:11.722Z,57.13
2018-05-13T08:34:39.631Z,12.00
2018-05-13T08:37:07.578Z,11.17
2018-05-13T08:39:35.479Z,15.93
2018-05-13T08:42:03.446Z,23.13
2018-05-13T08:44:31.353Z,14.73
2018-05-13T08:46:59.306Z,14.43
2018-05-13T08:49:27.215Z,15.20
2018-05-13T08:51:55.177Z,17.33
2018-05-13T08:54:23.082Z,23.73
2018-05-13T08:56:51.033Z,20.07
2018-05-13T08:59:18.940Z,17.17
2018-05-13T09:01:46.892Z,22.60
2018-05-13T09:04:14.825Z,17.63
2018-05-13T09:06:43.563Z,19.60
2018-05-13T09:09:11.494Z,37.30
2018-05-13T09:11:39.491Z,25.70
2018-05-13T09:14:07.429Z,21.10
2018-05-13T09:16:35.569Z,21.83
2018-05-13T09:19:03.499Z,21.77
2018-05-13T09:21:31.517Z,24.37
2018-05-13T09:23:59.432Z,26.27
2018-05-13T09:26:27.467Z,27.50
2018-05-13T09:28:56.141Z,23.80
2018-05-13T09:31:25.836Z,24.67
2018-05-13T09:33:53.810Z,25.83
2018-05-13T09:36:21.779Z,25.47
2018-05-13T09:38:49.675Z,28.43
2018-05-13T09:41:18.413Z,28.30
2018-05-13T09:43:46.312Z,30.07
2018-05-13T09:46:14.265Z,34.10
2018-05-13T09:48:42.229Z,32.37
2018-05-13T09:51:10.209Z,33.40
2018-05-13T09:53:39.287Z,32.87
2018-05-13T09:56:09.815Z,30.33
2018-05-13T09:58:37.713Z,29.83
2018-05-13T10:01:05.655Z,34.77
2018-05-13T10:03:33.616Z,29.60
2018-05-13T10:06:01.526Z,22.97
2018-05-13T10:08:29.469Z,28.10
2018-05-13T10:10:57.400Z,24.67
2018-05-13T10:13:26.121Z,23.03
2018-05-13T10:15:54.033Z,23.63
2018-05-13T10:18:21.992Z,26.47
2018-05-13T10:20:49.917Z,26.40
2018-05-13T10:23:17.901Z,34.27
2018-05-13T10:25:45.813Z,27.17
2018-05-13T10:28:13.802Z,27.70
2018-05-13T10:30:42.477Z,26.30
2018-05-13T10:33:10.469Z,25.87
2018-05-13T10:35:38.369Z,26.73
2018-05-13T10:38:06.362Z,25.93
2018-05-13T10:40:34.270Z,33.00
2018-05-13T10:43:02.994Z,35.63
2018-05-13T10:45:30.890Z,39.70
2018-05-13T10:47:58.844Z,47.53
2018-05-13T10:50:26.742Z,42.07
2018-05-13T10:52:54.692Z,38.70
2018-05-13T10:55:22.595Z,46.63
2018-05-13T10:57:51.327Z,42.40
2018-05-13T11:00:19.315Z,39.93
2018-05-13T11:02:47.288Z,39.93
2018-05-13T11:05:15.258Z,38.43
2018-05-13T11:07:43.234Z,37.57
2018-05-13T11:10:11.640Z,39.43
2018-05-13T11:12:39.628Z,28.53
2018-05-13T11:15:08.297Z,27.70
2018-05-13T11:17:38.101Z,30.33
2018-05-13T11:20:07.713Z,27.00
2018-05-13T11:22:35.686Z,27.43
2018-05-13T11:25:03.878Z,24.53
2018-05-13T11:27:32.638Z,21.23
2018-05-13T11:30:00.606Z,16.83
2018-05-13T11:32:28.725Z,18.10
2018-05-13T11:34:56.649Z,16.23
2018-05-13T11:37:24.615Z,17.07
2018-05-13T11:39:52.536Z,19.27
2018-05-13T11:42:20.632Z,18.53
2018-05-13T11:44:48.559Z,25.67
2018-05-13T11:47:16.561Z,20.47
2018-05-13T11:49:47.641Z,17.57
2018-05-13T11:52:15.814Z,18.20
2018-05-13T11:54:43.736Z,16.30
2018-05-13T11:57:11.698Z,18.87
2018-05-13T11:59:39.599Z,20.57
2018-05-13T12:02:07.709Z,19.30
2018-05-13T12:04:35.581Z,20.00
2018-05-13T12:07:04.348Z,20.57
2018-05-13T12:09:32.244Z,24.13
2018-05-13T12:12:00.244Z,23.83
2018-05-13T12:14:28.151Z,25.67
2018-05-13T12:16:56.113Z,27.20
2018-05-13T12:19:24.022Z,28.93
2018-05-13T12:21:52.012Z,29.40
2018-05-13T12:24:20.747Z,31.00
2018-05-13T12:26:48.725Z,29.37
2018-05-13T12:29:16.810Z,33.00
2018-05-13T12:31:44.771Z,33.77
2018-05-13T12:34:12.691Z,33.00
2018-05-13T12:36:40.601Z,34.93
2018-05-13T12:39:08.557Z,34.07
2018-05-13T12:41:36.464Z,32.87
2018-05-13T12:44:04.470Z,34.43
2018-05-13T12:46:32.394Z,32.37
2018-05-13T12:49:00.361Z,31.40
2018-05-13T12:51:28.285Z,29.47
2018-05-13T12:53:56.676Z,31.80
2018-05-13T12:56:24.969Z,30.17
2018-05-13T12:58:53.971Z,33.47
2018-05-13T13:01:21.897Z,29.23
2018-05-13T13:03:49.948Z,30.87
2018-05-13T13:06:17.866Z,30.00
2018-05-13T13:08:45.933Z,28.80
2018-05-13T13:11:13.840Z,35.23
2018-05-13T13:13:41.793Z,30.40
2018-05-13T13:16:10.077Z,31.67
2018-05-13T13:18:38.967Z,31.20
2018-05-13T13:21:11.564Z,35.17
2018-05-13T13:23:39.542Z,39.07
2018-05-13T13:26:08.338Z,37.17
2018-05-13T13:28:36.294Z,38.27
2018-05-13T13:31:04.254Z,38.33
2018-05-13T13:33:33.034Z,37.60
2018-05-13T13:36:01.767Z,31.50
2018-05-13T13:38:30.502Z,33.03
2018-05-13T13:40:58.411Z,36.90
2018-05-13T13:43:27.115Z,33.50
2018-05-13T13:45:55.869Z,31.30
2018-05-13T13:48:23.782Z,29.50
2018-05-13T13:50:51.748Z,33.57
2018-05-13T13:53:19.653Z,28.60
2018-05-13T13:55:47.612Z,23.50
2018-05-13T13:58:15.572Z,28.47
2018-05-13T14:00:43.585Z,27.10
2018-05-13T14:03:11.523Z,26.03
2018-05-13T14:05:42.408Z,30.03
2018-05-13T14:08:10.488Z,31.40
2018-05-13T14:10:38.456Z,32.77
2018-05-13T14:13:06.365Z,32.80
2018-05-13T14:15:34.324Z,33.60
2018-05-13T14:18:02.250Z,36.30
2018-05-13T14:20:30.297Z,34.10
2018-05-13T14:22:58.238Z,39.00
2018-05-13T14:25:27.107Z,30.03
2018-05-13T14:27:55.890Z,29.47
2018-05-13T14:30:24.624Z,29.83
2018-05-13T14:32:52.605Z,31.20
2018-05-13T14:35:21.320Z,33.17
2018-05-13T14:37:49.305Z,34.00
2018-05-13T14:40:17.290Z,32.40
2018-05-13T14:42:45.988Z,37.53
2018-05-13T14:45:14.007Z,33.73
2018-05-13T14:47:42.004Z,33.63
2018-05-13T14:50:09.913Z,37.20
2018-05-13T14:52:37.877Z,35.40
2018-05-13T14:55:05.837Z,39.37
2018-05-13T14:57:33.878Z,39.40
2018-05-13T15:00:01.845Z,41.23
2018-05-13T15:02:29.803Z,42.80
2018-05-13T15:04:57.798Z,38.20
2018-05-13T15:07:31.532Z,41.87
2018-05-13T15:09:59.471Z,46.40
2018-05-13T15:12:27.446Z,40.60
2018-05-13T15:14:56.184Z,42.37
2018-05-13T15:17:24.159Z,42.47
2018-05-13T15:19:52.088Z,40.70
2018-05-13T15:22:21.037Z,47.30
2018-05-13T15:24:48.955Z,49.87
2018-05-13T15:27:17.694Z,49.10
2018-05-13T15:29:45.601Z,57.53
2018-05-13T15:32:14.342Z,50.13
2018-05-13T15:34:42.258Z,49.93
2018-05-13T15:37:11.076Z,47.57
2018-05-13T15:39:39.730Z,50.57
2018-05-13T15:42:09.037Z,52.17
2018-05-13T15:44:37.057Z,55.43
2018-05-13T15:47:06.344Z,60.80
2018-05-13T15:49:34.425Z,58.60
2018-05-13T15:52:02.341Z,58.93
2018-05-13T15:54:31.130Z,63.90
2018-05-13T15:56:59.087Z,62.27
2018-05-13T15:59:27.061Z,63.53
2018-05-13T16:01:54.991Z,71.07
2018-05-13T16:04:22.965Z,59.13
2018-05-13T16:06:50.874Z,69.03
2018-05-13T16:09:18.830Z,70.30
2018-05-13T16:11:46.763Z,68.40
2018-05-13T16:14:14.754Z,60.03
2018-05-13T16:16:42.775Z,60.07
2018-05-13T16:19:10.756Z,60.17
2018-05-13T16:21:38.721Z,58.20
2018-05-13T16:24:07.498Z,59.33
2018-05-13T16:26:36.201Z,63.60
2018-05-13T16:29:04.211Z,54.03
2018-05-13T16:31:32.163Z,58.33
2018-05-13T16:34:00.136Z,64.60
2018-05-13T16:36:28.505Z,65.93
2018-05-13T16:38:56.460Z,62.77
2018-05-13T16:41:25.146Z,51.50
2018-05-13T16:43:53.907Z,59.07
2018-05-13T16:46:22.646Z,58.50
2018-05-13T16:48:50.641Z,58.47
2018-05-13T16:51:18.541Z,58.83
2018-05-13T16:53:46.530Z,57.03
2018-05-13T16:56:15.200Z,54.03
2018-05-13T16:58:43.157Z,55.70
2018-05-13T17:01:11.069Z,60.07
2018-05-13T17:03:39.038Z,60.03
2018-05-13T17:06:06.948Z,59.27
2018-05-13T17:08:34.923Z,56.37
2018-05-13T17:11:02.863Z,55.70
2018-05-13T17:13:31.294Z,59.47
2018-05-13T17:15:59.205Z,55.67
2018-05-13T17:18:27.161Z,56.53
2018-05-13T17:20:55.854Z,61.10
2018-05-13T17:23:23.854Z,51.20
2018-05-13T17:25:51.770Z,54.67
2018-05-13T17:28:19.861Z,60.13
2018-05-13T17:30:48.550Z,58.30
2018-05-13T17:33:17.343Z,57.83
2018-05-13T17:35:45.462Z,63.17
2018-05-13T17:38:13.417Z,64.83
2018-05-13T17:40:41.314Z,58.10
2018-05-13T17:43:09.283Z,63.60
2018-05-13T17:45:37.228Z,67.07
2018-05-13T17:48:05.769Z,62.23
2018-05-13T17:50:35.270Z,65.43
2018-05-13T17:53:04.732Z,73.00
2018-05-13T17:55:33.106Z,66.80
2018-05-13T17:58:01.238Z,78.63
2018-05-13T18:00:30.008Z,83.90
2018-05-13T18:02:58.147Z,77.23
2018-05-13T18:05:26.350Z,82.40
2018-05-13T18:07:54.751Z,85.00
2018-05-13T18:10:23.498Z,87.43
2018-05-13T18:12:51.413Z,80.17
2018-05-13T18:15:20.150Z,82.37
2018-05-13T18:17:48.092Z,90.03
2018-05-13T18:20:16.082Z,90.50
2018-05-13T18:22:43.990Z,87.37
2018-05-13T18:25:14.215Z,97.83
2018-05-13T18:27:42.251Z,86.20
2018-05-13T18:30:10.225Z,91.47
2018-05-13T18:32:38.138Z,90.83
2018-05-13T18:35:06.105Z,90.60
2018-05-13T18:37:37.606Z,94.90
2018-05-13T18:40:05.772Z,97.10
2018-05-13T18:42:33.685Z,105.00
2018-05-13T18:45:01.853Z,108.20
2018-05-13T18:47:29.806Z,118.77
2018-05-13T18:49:57.780Z,113.57
2018-05-13T18:52:25.711Z,115.07
2018-05-13T18:54:53.768Z,114.20
2018-05-13T18:57:22.459Z,113.00
2018-05-13T18:59:51.346Z,111.40
2018-05-13T19:02:20.592Z,120.70
2018-05-13T19:04:50.730Z,126.47
2018-05-13T19:07:19.441Z,137.67
2018-05-13T19:09:47.851Z,140.80
2018-05-13T19:12:15.876Z,142.83
2018-05-13T19:14:43.900Z,143.27
2018-05-13T19:17:11.916Z,149.30
2018-05-13T19:19:39.893Z,145.93
2018-05-13T19:22:07.825Z,162.93
2018-05-13T19:24:35.925Z,150.03
2018-05-13T19:27:03.868Z,166.40
2018-05-13T19:29:31.828Z,174.47
2018-05-13T19:31:59.743Z,167.57
2018-05-13T19:34:27.704Z,176.90
2018-05-13T19:36:55.703Z,202.37
2018-05-13T19:39:23.648Z,182.23
2018-05-13T19:41:51.559Z,184.73
2018-05-13T19:44:20.316Z,171.77
2018-05-13T19:46:48.269Z,165.10
2018-05-13T19:49:16.243Z,186.03
2018-05-13T19:51:45.590Z,176.30
2018-05-13T19:54:13.675Z,176.80
2018-05-13T19:56:43.356Z,186.07
2018-05-13T19:59:12.158Z,166.73
2018-05-13T20:01:40.861Z,182.43
2018-05-13T20:04:08.830Z,171.30
2018-05-13T20:06:36.737Z,156.40
2018-05-13T20:09:04.844Z,174.43
2018-05-13T20:11:32.738Z,175.97
2018-05-13T20:14:00.730Z,175.23
2018-05-13T20:16:28.675Z,177.27
2018-05-13T20:18:57.635Z,165.50
2018-05-13T20:21:25.540Z,171.57
2018-05-13T20:23:53.506Z,186.73
2018-05-13T20:26:22.173Z,172.00
2018-05-13T20:28:50.141Z,189.57
2018-05-13T20:31:18.053Z,174.70
2018-05-13T20:33:47.280Z,173.63
2018-05-13T20:36:15.263Z,156.00
2018-05-13T20:38:43.175Z,178.67
2018-05-13T20:41:11.164Z,149.20
2018-05-13T20:43:39.079Z,184.87
2018-05-13T20:46:10.725Z,170.37
2018-05-13T20:48:38.643Z,153.60
2018-05-13T20:51:06.627Z,165.13
2018-05-13T20:53:34.543Z,153.40
2018-05-13T20:56:02.515Z,154.17
2018-05-13T20:58:31.629Z,156.10
2018-05-13T21:01:00.422Z,143.87
2018-05-13T21:03:29.107Z,145.77
2018-05-13T21:05:57.832Z,129.13
2018-05-13T21:08:25.729Z,128.07
2018-05-13T21:10:53.693Z,131.07
2018-05-13T21:13:21.708Z,134.43
2018-05-13T21:15:53.547Z,120.40
2018-05-13T21:18:21.645Z,135.60
2018-05-13T21:20:50.436Z,120.40
2018-05-13T21:23:19.965Z,121.10
2018-05-13T21:25:49.843Z,110.20
2018-05-13T21:28:18.969Z,115.77
2018-05-13T21:30:47.013Z,110.40
2018-05-13T21:33:14.907Z,102.27
2018-05-13T21:35:42.878Z,103.47
2018-05-13T21:38:10.778Z,88.87
2018-05-13T21:40:38.735Z,90.27
2018-05-13T21:43:06.640Z,79.50
2018-05-13T21:45:34.608Z,85.20
2018-05-13T21:48:02.517Z,69.23
2018-05-13T21:50:31.308Z,73.07
2018-05-13T21:52:59.969Z,70.03
2018-05-13T21:55:27.935Z,65.30
2018-05-13T21:57:55.837Z,74.27
2018-05-13T22:00:24.561Z,68.10
2018-05-13T22:02:52.514Z,67.40
2018-05-13T22:05:20.482Z,71.00
2018-05-13T22:07:48.424Z,88.60
2018-05-13T22:10:17.154Z,75.83
2018-05-13T22:12:46.435Z,75.90
2018-05-13T22:15:14.389Z,81.40
2018-05-13T22:17:43.070Z,70.90
2018-05-13T22:20:11.829Z,70.57
2018-05-13T22:22:39.738Z,81.23
2018-05-13T22:25:08.474Z,77.40
2018-05-13T22:27:36.368Z,74.87
2018-05-13T22:30:04.453Z,77.60
2018-05-13T22:32:33.113Z,74.87
2018-05-13T22:35:01.075Z,76.57
2018-05-13T22:37:28.982Z,74.90
2018-05-13T22:39:57.718Z,82.57
2018-05-13T22:42:25.609Z,85.20
2018-05-13T22:44:53.594Z,77.97
2018-05-13T22:47:21.550Z,93.77
2018-05-13T22:49:49.541Z,87.57
2018-05-13T22:52:17.518Z,87.47
2018-05-13T22:54:45.462Z,94.20
2018-05-13T22:57:13.374Z,90.90
2018-05-13T22:59:41.338Z,87.37
2018-05-13T23:02:10.018Z,93.30
2018-05-13T23:04:38.786Z,94.33
2018-05-13T23:07:07.490Z,96.77
2018-05-13T23:09:36.220Z,88.40
2018-05-13T23:12:04.121Z,88.50
2018-05-13T23:14:32.082Z,85.73
2018-05-13T23:16:59.981Z,92.33
2018-05-13T23:19:27.958Z,92.80
2018-05-13T23:21:56.631Z,82.67
2018-05-13T23:24:24.540Z,98.87
2018-05-13T23:26:52.499Z,92.50
2018-05-13T23:29:20.388Z,90.40
2018-05-13T23:31:48.368Z,83.80
2018-05-13T23:34:16.270Z,87.40
2018-05-13T23:36:44.231Z,92.10
2018-05-13T23:39:12.178Z,85.97
2018-05-13T23:41:40.127Z,85.20
2018-05-13T23:44:08.041Z,80.03
2018-05-13T23:46:36.007Z,80.57
2018-05-13T23:49:03.913Z,92.17
2018-05-13T23:51:32.677Z,80.43
2018-05-13T23:54:00.596Z,83.47
2018-05-13T23:56:28.566Z,92.20
2018-05-13T23:58:56.479Z,81.37
